sensor_id;sensor_type;location;lat;lon;timestamp;pressure;altitude;pressure_sealevel;temperature;humidity
86680;BME280;77423;53.554;9.916;2024-03-22T00:01:41;101567.50;;;13.38;60.89
86680;BME280;77423;53.554;9.916;2024-03-22T00:04:06;101565.78;;;12.16;63.20
86680;BME280;77423;53.554;9.916;2024-03-22T00:06:31;101551.59;;;13.24;61.42
86680;BME280;77423;53.554;9.916;2024-03-22T00:08:56;101544.59;;;13.21;61.36
86680;BME280;77423;53.554;9.916;2024-03-22T00:11:22;101542.63;;;13.03;61.57
86680;BME280;77423;53.554;9.916;2024-03-22T00:13:47;101547.06;;;13.09;61.65
86680;BME280;77423;53.554;9.916;2024-03-22T00:16:12;101552.59;;;13.35;61.04
86680;BME280;77423;53.554;9.916;2024-03-22T00:18:38;101547.63;;;13.57;60.70
86680;BME280;77423;53.554;9.916;2024-03-22T00:21:03;101539.75;;;13.55;60.45
86680;BME280;77423;53.554;9.916;2024-03-22T00:23:28;101537.97;;;13.51;61.04
86680;BME280;77423;53.554;9.916;2024-03-22T00:25:55;101535.91;;;13.24;61.64
86680;BME280;77423;53.554;9.916;2024-03-22T00:28:20;101530.09;;;13.51;60.84
86680;BME280;77423;53.554;9.916;2024-03-22T00:30:46;101526.41;;;13.34;60.73
86680;BME280;77423;53.554;9.916;2024-03-22T00:33:11;101529.69;;;13.16;60.75
86680;BME280;77423;53.554;9.916;2024-03-22T00:35:36;101520.47;;;13.47;60.68
86680;BME280;77423;53.554;9.916;2024-03-22T00:38:01;101521.38;;;13.51;60.51
86680;BME280;77423;53.554;9.916;2024-03-22T00:40:27;101512.44;;;13.35;61.36
86680;BME280;77423;53.554;9.916;2024-03-22T00:42:52;101504.09;;;13.71;60.66
86680;BME280;77423;53.554;9.916;2024-03-22T00:45:17;101511.16;;;13.00;62.70
86680;BME280;77423;53.554;9.916;2024-03-22T00:47:43;101506.00;;;13.03;61.77
86680;BME280;77423;53.554;9.916;2024-03-22T00:50:08;101503.66;;;13.28;61.84
86680;BME280;77423;53.554;9.916;2024-03-22T00:52:33;101492.88;;;13.88;60.11
86680;BME280;77423;53.554;9.916;2024-03-22T00:54:59;101484.06;;;13.79;60.14
86680;BME280;77423;53.554;9.916;2024-03-22T00:57:24;101488.06;;;13.39;61.26
86680;BME280;77423;53.554;9.916;2024-03-22T00:59:49;101488.78;;;13.27;61.32
86680;BME280;77423;53.554;9.916;2024-03-22T01:02:15;101482.03;;;13.47;60.79
86680;BME280;77423;53.554;9.916;2024-03-22T01:04:40;101487.22;;;13.38;61.12
86680;BME280;77423;53.554;9.916;2024-03-22T01:07:06;101474.72;;;13.16;61.58
86680;BME280;77423;53.554;9.916;2024-03-22T01:09:31;101469.75;;;13.40;61.56
86680;BME280;77423;53.554;9.916;2024-03-22T01:11:56;101468.19;;;13.61;60.71
86680;BME280;77423;53.554;9.916;2024-03-22T01:14:22;101460.28;;;12.73;62.60
86680;BME280;77423;53.554;9.916;2024-03-22T01:16:47;101455.19;;;12.18;63.96
86680;BME280;77423;53.554;9.916;2024-03-22T01:19:12;101455.00;;;13.52;61.35
86680;BME280;77423;53.554;9.916;2024-03-22T01:21:38;101450.25;;;12.38;64.17
86680;BME280;77423;53.554;9.916;2024-03-22T01:24:03;101447.59;;;13.10;62.74
86680;BME280;77423;53.554;9.916;2024-03-22T01:26:28;101437.34;;;11.92;64.82
86680;BME280;77423;53.554;9.916;2024-03-22T01:28:53;101439.34;;;12.07;65.53
86680;BME280;77423;53.554;9.916;2024-03-22T01:31:19;101428.81;;;12.69;62.67
86680;BME280;77423;53.554;9.916;2024-03-22T01:33:44;101422.75;;;12.73;63.71
86680;BME280;77423;53.554;9.916;2024-03-22T01:36:09;101420.38;;;12.96;63.09
86680;BME280;77423;53.554;9.916;2024-03-22T01:38:35;101400.75;;;12.57;63.75
86680;BME280;77423;53.554;9.916;2024-03-22T01:41:00;101389.81;;;12.90;63.20
86680;BME280;77423;53.554;9.916;2024-03-22T01:43:25;101383.44;;;12.65;63.83
86680;BME280;77423;53.554;9.916;2024-03-22T01:45:50;101387.38;;;11.69;66.62
86680;BME280;77423;53.554;9.916;2024-03-22T01:48:16;101384.78;;;12.32;64.64
86680;BME280;77423;53.554;9.916;2024-03-22T01:50:41;101373.22;;;12.15;65.24
86680;BME280;77423;53.554;9.916;2024-03-22T01:53:08;101378.00;;;12.46;64.25
86680;BME280;77423;53.554;9.916;2024-03-22T01:55:34;101375.13;;;13.03;62.88
86680;BME280;77423;53.554;9.916;2024-03-22T01:57:59;101372.38;;;12.91;63.55
86680;BME280;77423;53.554;9.916;2024-03-22T02:00:25;101371.66;;;12.27;64.54
86680;BME280;77423;53.554;9.916;2024-03-22T02:02:50;101375.41;;;12.51;63.85
86680;BME280;77423;53.554;9.916;2024-03-22T02:05:16;101368.72;;;12.73;64.05
86680;BME280;77423;53.554;9.916;2024-03-22T02:07:45;101367.09;;;12.89;63.16
86680;BME280;77423;53.554;9.916;2024-03-22T02:10:10;101362.91;;;13.04;63.04
86680;BME280;77423;53.554;9.916;2024-03-22T02:12:37;101357.00;;;13.26;62.61
86680;BME280;77423;53.554;9.916;2024-03-22T02:15:03;101355.53;;;12.64;64.60
86680;BME280;77423;53.554;9.916;2024-03-22T02:17:28;101344.88;;;12.49;64.33
86680;BME280;77423;53.554;9.916;2024-03-22T02:19:53;101346.06;;;12.78;64.11
86680;BME280;77423;53.554;9.916;2024-03-22T02:22:19;101323.81;;;13.25;63.32
86680;BME280;77423;53.554;9.916;2024-03-22T02:24:44;101319.72;;;13.58;61.42
86680;BME280;77423;53.554;9.916;2024-03-22T02:27:09;101325.13;;;13.83;61.14
86680;BME280;77423;53.554;9.916;2024-03-22T02:29:35;101323.47;;;14.08;60.64
86680;BME280;77423;53.554;9.916;2024-03-22T02:32:00;101324.72;;;13.30;61.95
86680;BME280;77423;53.554;9.916;2024-03-22T02:34:25;101323.56;;;14.27;60.13
86680;BME280;77423;53.554;9.916;2024-03-22T02:36:50;101323.63;;;14.42;59.51
86680;BME280;77423;53.554;9.916;2024-03-22T02:39:16;101336.47;;;12.77;63.71
86680;BME280;77423;53.554;9.916;2024-03-22T02:41:41;101339.13;;;12.80;64.09
86680;BME280;77423;53.554;9.916;2024-03-22T02:44:06;101332.31;;;13.00;64.01
86680;BME280;77423;53.554;9.916;2024-03-22T02:46:32;101322.88;;;13.19;63.04
86680;BME280;77423;53.554;9.916;2024-03-22T02:48:57;101325.50;;;13.19;63.10
86680;BME280;77423;53.554;9.916;2024-03-22T02:51:22;101326.56;;;13.39;63.07
86680;BME280;77423;53.554;9.916;2024-03-22T02:53:47;101322.59;;;12.88;64.27
86680;BME280;77423;53.554;9.916;2024-03-22T02:56:13;101314.34;;;13.38;62.94
86680;BME280;77423;53.554;9.916;2024-03-22T02:58:38;101319.22;;;12.95;63.74
86680;BME280;77423;53.554;9.916;2024-03-22T03:01:03;101313.22;;;13.08;64.01
86680;BME280;77423;53.554;9.916;2024-03-22T03:03:29;101306.41;;;13.32;62.93
86680;BME280;77423;53.554;9.916;2024-03-22T03:05:54;101306.25;;;13.12;63.73
86680;BME280;77423;53.554;9.916;2024-03-22T03:08:19;101290.88;;;13.58;62.38
86680;BME280;77423;53.554;9.916;2024-03-22T03:10:44;101289.16;;;13.59;62.06
86680;BME280;77423;53.554;9.916;2024-03-22T03:13:10;101290.03;;;13.58;62.60
86680;BME280;77423;53.554;9.916;2024-03-22T03:15:36;101278.03;;;14.03;61.66
86680;BME280;77423;53.554;9.916;2024-03-22T03:18:01;101280.56;;;13.81;62.27
86680;BME280;77423;53.554;9.916;2024-03-22T03:20:26;101270.03;;;13.78;62.09
86680;BME280;77423;53.554;9.916;2024-03-22T03:22:52;101262.28;;;13.97;61.44
86680;BME280;77423;53.554;9.916;2024-03-22T03:25:17;101263.94;;;13.82;62.02
86680;BME280;77423;53.554;9.916;2024-03-22T03:27:42;101262.31;;;14.11;61.38
86680;BME280;77423;53.554;9.916;2024-03-22T03:30:08;101258.75;;;13.86;62.12
86680;BME280;77423;53.554;9.916;2024-03-22T03:32:33;101263.25;;;14.25;61.14
86680;BME280;77423;53.554;9.916;2024-03-22T03:34:58;101259.66;;;13.95;62.18
86680;BME280;77423;53.554;9.916;2024-03-22T03:37:24;101258.00;;;14.27;60.92
86680;BME280;77423;53.554;9.916;2024-03-22T03:39:49;101256.88;;;13.66;62.52
86680;BME280;77423;53.554;9.916;2024-03-22T03:42:14;101254.63;;;12.91;65.22
86680;BME280;77423;53.554;9.916;2024-03-22T03:44:40;101248.16;;;13.67;62.89
86680;BME280;77423;53.554;9.916;2024-03-22T03:47:06;101246.53;;;14.02;62.40
86680;BME280;77423;53.554;9.916;2024-03-22T03:49:31;101239.34;;;13.53;63.45
86680;BME280;77423;53.554;9.916;2024-03-22T03:51:57;101241.03;;;13.44;63.55
86680;BME280;77423;53.554;9.916;2024-03-22T03:54:22;101234.41;;;14.21;62.42
86680;BME280;77423;53.554;9.916;2024-03-22T03:56:47;101216.72;;;13.66;63.10
86680;BME280;77423;53.554;9.916;2024-03-22T03:59:13;101214.84;;;13.43;63.61
86680;BME280;77423;53.554;9.916;2024-03-22T04:01:38;101210.34;;;13.23;64.77
86680;BME280;77423;53.554;9.916;2024-03-22T04:04:03;101209.75;;;13.75;63.21
86680;BME280;77423;53.554;9.916;2024-03-22T04:06:29;101207.97;;;13.62;62.71
86680;BME280;77423;53.554;9.916;2024-03-22T04:08:54;101197.47;;;13.59;63.12
86680;BME280;77423;53.554;9.916;2024-03-22T04:11:20;101191.44;;;13.78;62.73
86680;BME280;77423;53.554;9.916;2024-03-22T04:13:45;101194.63;;;13.22;64.84
86680;BME280;77423;53.554;9.916;2024-03-22T04:16:11;101182.69;;;13.75;63.16
86680;BME280;77423;53.554;9.916;2024-03-22T04:18:36;101174.88;;;13.89;62.54
86680;BME280;77423;53.554;9.916;2024-03-22T04:21:01;101168.75;;;13.96;62.58
86680;BME280;77423;53.554;9.916;2024-03-22T04:23:27;101176.47;;;13.53;63.31
86680;BME280;77423;53.554;9.916;2024-03-22T04:25:57;101180.91;;;13.64;63.25
86680;BME280;77423;53.554;9.916;2024-03-22T04:28:23;101165.31;;;14.03;62.56
86680;BME280;77423;53.554;9.916;2024-03-22T04:31:02;101176.56;;;13.76;63.21
86680;BME280;77423;53.554;9.916;2024-03-22T04:33:29;101168.81;;;14.10;62.21
86680;BME280;77423;53.554;9.916;2024-03-22T04:35:55;101175.84;;;14.42;61.48
86680;BME280;77423;53.554;9.916;2024-03-22T04:38:27;101172.28;;;14.00;62.48
86680;BME280;77423;53.554;9.916;2024-03-22T04:40:53;101158.59;;;12.80;64.99
86680;BME280;77423;53.554;9.916;2024-03-22T04:43:20;101154.75;;;13.78;63.29
86680;BME280;77423;53.554;9.916;2024-03-22T04:45:46;101149.56;;;13.97;63.00
86680;BME280;77423;53.554;9.916;2024-03-22T04:48:14;101152.19;;;14.11;62.48
86680;BME280;77423;53.554;9.916;2024-03-22T04:50:40;101151.31;;;14.01;62.12
86680;BME280;77423;53.554;9.916;2024-03-22T04:53:05;101146.75;;;13.47;62.63
86680;BME280;77423;53.554;9.916;2024-03-22T04:55:31;101140.81;;;14.04;62.38
86680;BME280;77423;53.554;9.916;2024-03-22T04:57:58;101132.13;;;14.36;61.97
86680;BME280;77423;53.554;9.916;2024-03-22T05:00:23;101130.91;;;13.26;64.89
86680;BME280;77423;53.554;9.916;2024-03-22T05:02:50;101116.91;;;13.18;64.29
86680;BME280;77423;53.554;9.916;2024-03-22T05:05:15;101122.44;;;13.75;64.04
86680;BME280;77423;53.554;9.916;2024-03-22T05:07:41;101122.19;;;13.24;64.39
86680;BME280;77423;53.554;9.916;2024-03-22T05:10:06;101135.56;;;13.89;63.28
86680;BME280;77423;53.554;9.916;2024-03-22T05:12:31;101128.50;;;13.60;64.29
86680;BME280;77423;53.554;9.916;2024-03-22T05:14:57;101123.34;;;13.94;63.09
86680;BME280;77423;53.554;9.916;2024-03-22T05:17:22;101119.78;;;13.67;64.01
86680;BME280;77423;53.554;9.916;2024-03-22T05:19:48;101120.69;;;13.86;63.82
86680;BME280;77423;53.554;9.916;2024-03-22T05:22:13;101117.19;;;13.82;64.14
86680;BME280;77423;53.554;9.916;2024-03-22T05:24:38;101122.41;;;13.70;63.94
86680;BME280;77423;53.554;9.916;2024-03-22T05:27:04;101117.13;;;13.61;64.30
86680;BME280;77423;53.554;9.916;2024-03-22T05:29:29;101106.72;;;13.86;63.95
86680;BME280;77423;53.554;9.916;2024-03-22T05:31:54;101113.72;;;13.90;63.36
86680;BME280;77423;53.554;9.916;2024-03-22T05:34:20;101106.78;;;14.29;62.72
86680;BME280;77423;53.554;9.916;2024-03-22T05:36:46;101108.50;;;14.07;63.28
86680;BME280;77423;53.554;9.916;2024-03-22T05:39:11;101113.44;;;13.12;65.25
86680;BME280;77423;53.554;9.916;2024-03-22T05:41:37;101119.47;;;13.05;65.85
86680;BME280;77423;53.554;9.916;2024-03-22T05:44:03;101108.50;;;13.99;63.75
86680;BME280;77423;53.554;9.916;2024-03-22T05:46:29;101107.56;;;13.74;64.24
86680;BME280;77423;53.554;9.916;2024-03-22T05:48:54;101114.47;;;13.48;65.03
86680;BME280;77423;53.554;9.916;2024-03-22T05:51:19;101103.13;;;13.46;65.70
86680;BME280;77423;53.554;9.916;2024-03-22T05:53:45;101100.56;;;13.70;64.97
86680;BME280;77423;53.554;9.916;2024-03-22T05:56:10;101103.84;;;13.18;66.15
86680;BME280;77423;53.554;9.916;2024-03-22T05:58:36;101102.22;;;13.38;65.86
86680;BME280;77423;53.554;9.916;2024-03-22T06:01:02;101099.63;;;13.46;66.10
86680;BME280;77423;53.554;9.916;2024-03-22T06:03:28;101105.56;;;13.12;66.65
86680;BME280;77423;53.554;9.916;2024-03-22T06:05:53;101101.22;;;13.16;66.89
86680;BME280;77423;53.554;9.916;2024-03-22T06:08:21;101084.03;;;14.00;64.80
86680;BME280;77423;53.554;9.916;2024-03-22T06:10:47;101067.38;;;13.64;65.79
86680;BME280;77423;53.554;9.916;2024-03-22T06:13:12;101070.88;;;13.68;65.68
86680;BME280;77423;53.554;9.916;2024-03-22T06:15:37;101068.25;;;13.60;65.90
86680;BME280;77423;53.554;9.916;2024-03-22T06:18:03;101076.91;;;13.40;66.28
86680;BME280;77423;53.554;9.916;2024-03-22T06:20:28;101080.03;;;12.74;68.16
86680;BME280;77423;53.554;9.916;2024-03-22T06:22:53;101078.56;;;13.23;66.99
86680;BME280;77423;53.554;9.916;2024-03-22T06:25:19;101081.31;;;13.57;66.16
86680;BME280;77423;53.554;9.916;2024-03-22T06:27:44;101084.41;;;12.75;68.29
86680;BME280;77423;53.554;9.916;2024-03-22T06:30:10;101075.88;;;13.13;67.89
86680;BME280;77423;53.554;9.916;2024-03-22T06:32:35;101066.53;;;13.96;65.67
86680;BME280;77423;53.554;9.916;2024-03-22T06:35:00;101065.69;;;13.92;65.59
86680;BME280;77423;53.554;9.916;2024-03-22T06:37:26;101062.00;;;13.25;66.64
86680;BME280;77423;53.554;9.916;2024-03-22T06:39:51;101054.09;;;13.18;67.89
86680;BME280;77423;53.554;9.916;2024-03-22T06:42:16;101040.31;;;13.68;66.78
86680;BME280;77423;53.554;9.916;2024-03-22T06:44:41;101038.56;;;13.78;66.55
86680;BME280;77423;53.554;9.916;2024-03-22T06:47:07;101043.81;;;14.06;65.47
86680;BME280;77423;53.554;9.916;2024-03-22T06:49:32;101034.22;;;14.26;65.24
86680;BME280;77423;53.554;9.916;2024-03-22T06:51:57;101031.56;;;13.61;66.16
86680;BME280;77423;53.554;9.916;2024-03-22T06:54:23;101019.38;;;14.02;65.14
86680;BME280;77423;53.554;9.916;2024-03-22T06:56:49;101022.84;;;14.17;65.33
86680;BME280;77423;53.554;9.916;2024-03-22T06:59:14;101017.59;;;13.64;66.75
86680;BME280;77423;53.554;9.916;2024-03-22T07:01:39;101000.13;;;14.37;65.14
86680;BME280;77423;53.554;9.916;2024-03-22T07:04:04;101010.59;;;13.58;66.77
86680;BME280;77423;53.554;9.916;2024-03-22T07:06:30;101009.75;;;13.75;66.95
86680;BME280;77423;53.554;9.916;2024-03-22T07:08:55;101010.63;;;13.85;65.79
86680;BME280;77423;53.554;9.916;2024-03-22T07:11:21;101016.75;;;14.14;65.77
86680;BME280;77423;53.554;9.916;2024-03-22T07:13:47;101027.22;;;14.35;65.09
86680;BME280;77423;53.554;9.916;2024-03-22T07:16:12;101013.19;;;14.57;64.56
86680;BME280;77423;53.554;9.916;2024-03-22T07:18:38;101002.72;;;14.31;65.18
86680;BME280;77423;53.554;9.916;2024-03-22T07:21:03;101001.03;;;14.11;66.00
86680;BME280;77423;53.554;9.916;2024-03-22T07:23:29;100994.91;;;14.25;65.57
86680;BME280;77423;53.554;9.916;2024-03-22T07:25:54;101001.78;;;14.60;64.51
86680;BME280;77423;53.554;9.916;2024-03-22T07:28:19;101011.47;;;14.19;65.96
86680;BME280;77423;53.554;9.916;2024-03-22T07:30:45;101008.78;;;14.76;64.64
86680;BME280;77423;53.554;9.916;2024-03-22T07:33:10;101001.75;;;14.88;63.99
86680;BME280;77423;53.554;9.916;2024-03-22T07:35:41;101010.56;;;14.45;65.21
86680;BME280;77423;53.554;9.916;2024-03-22T07:38:06;101002.69;;;14.54;65.20
86680;BME280;77423;53.554;9.916;2024-03-22T07:40:32;101006.19;;;14.48;65.00
86680;BME280;77423;53.554;9.916;2024-03-22T07:42:57;101005.38;;;14.22;65.74
86680;BME280;77423;53.554;9.916;2024-03-22T07:45:24;101006.25;;;14.16;66.26
86680;BME280;77423;53.554;9.916;2024-03-22T07:47:50;100994.88;;;14.31;66.13
86680;BME280;77423;53.554;9.916;2024-03-22T07:50:15;101001.00;;;14.14;66.65
86680;BME280;77423;53.554;9.916;2024-03-22T07:52:42;101007.13;;;14.20;66.56
86680;BME280;77423;53.554;9.916;2024-03-22T07:55:07;101007.97;;;14.34;65.92
86680;BME280;77423;53.554;9.916;2024-03-22T07:57:32;101003.66;;;14.11;66.86
86680;BME280;77423;53.554;9.916;2024-03-22T07:59:58;101006.25;;;14.05;67.95
86680;BME280;77423;53.554;9.916;2024-03-22T08:02:23;101000.06;;;14.59;65.96
86680;BME280;77423;53.554;9.916;2024-03-22T08:04:49;100992.25;;;14.37;66.45
86680;BME280;77423;53.554;9.916;2024-03-22T08:07:14;100987.91;;;13.59;68.40
86680;BME280;77423;53.554;9.916;2024-03-22T08:09:39;100987.91;;;14.07;67.10
86680;BME280;77423;53.554;9.916;2024-03-22T08:12:05;100990.53;;;13.97;67.94
86680;BME280;77423;53.554;9.916;2024-03-22T08:14:31;100980.91;;;14.17;68.05
86680;BME280;77423;53.554;9.916;2024-03-22T08:16:56;100980.03;;;14.13;67.96
86680;BME280;77423;53.554;9.916;2024-03-22T08:19:22;100987.03;;;13.75;69.94
86680;BME280;77423;53.554;9.916;2024-03-22T08:21:47;100972.16;;;14.18;68.40
86680;BME280;77423;53.554;9.916;2024-03-22T08:24:12;100974.78;;;14.24;69.07
86680;BME280;77423;53.554;9.916;2024-03-22T08:26:37;100966.94;;;13.50;70.79
86680;BME280;77423;53.554;9.916;2024-03-22T08:29:03;100966.03;;;14.23;69.34
86680;BME280;77423;53.554;9.916;2024-03-22T08:31:28;100966.84;;;14.65;68.11
86680;BME280;77423;53.554;9.916;2024-03-22T08:33:53;100974.78;;;14.25;68.88
86680;BME280;77423;53.554;9.916;2024-03-22T08:36:21;100973.06;;;13.76;70.21
86680;BME280;77423;53.554;9.916;2024-03-22T08:38:46;100971.31;;;14.06;69.25
86680;BME280;77423;53.554;9.916;2024-03-22T08:41:11;100963.44;;;13.66;70.73
86680;BME280;77423;53.554;9.916;2024-03-22T08:43:37;100961.63;;;13.25;71.93
86680;BME280;77423;53.554;9.916;2024-03-22T08:46:02;100959.06;;;13.96;70.92
86680;BME280;77423;53.554;9.916;2024-03-22T08:48:28;100956.41;;;14.30;69.85
86680;BME280;77423;53.554;9.916;2024-03-22T08:50:54;100960.81;;;13.97;71.00
86680;BME280;77423;53.554;9.916;2024-03-22T08:53:19;100957.28;;;14.24;70.10
86680;BME280;77423;53.554;9.916;2024-03-22T08:55:46;100962.50;;;14.41;70.38
86680;BME280;77423;53.554;9.916;2024-03-22T08:58:12;100965.16;;;14.30;69.95
86680;BME280;77423;53.554;9.916;2024-03-22T09:00:37;100954.59;;;14.54;69.48
86680;BME280;77423;53.554;9.916;2024-03-22T09:03:03;100949.47;;;14.07;70.56
86680;BME280;77423;53.554;9.916;2024-03-22T09:05:28;100955.59;;;14.06;71.03
86680;BME280;77423;53.554;9.916;2024-03-22T09:07:54;100959.91;;;14.30;70.51
86680;BME280;77423;53.554;9.916;2024-03-22T09:10:20;100945.97;;;14.05;70.49
86680;BME280;77423;53.554;9.916;2024-03-22T09:12:46;100938.88;;;14.51;69.66
86680;BME280;77423;53.554;9.916;2024-03-22T09:15:11;100945.91;;;14.33;69.93
86680;BME280;77423;53.554;9.916;2024-03-22T09:17:36;100948.59;;;14.02;71.20
86680;BME280;77423;53.554;9.916;2024-03-22T09:20:02;100939.84;;;14.05;71.41
86680;BME280;77423;53.554;9.916;2024-03-22T09:22:29;100932.84;;;13.97;71.31
86680;BME280;77423;53.554;9.916;2024-03-22T09:24:54;100920.63;;;14.09;71.33
86680;BME280;77423;53.554;9.916;2024-03-22T09:27:20;100918.00;;;14.00;70.65
86680;BME280;77423;53.554;9.916;2024-03-22T09:29:45;100921.53;;;13.44;71.85
86680;BME280;77423;53.554;9.916;2024-03-22T09:32:10;100925.00;;;14.04;71.03
86680;BME280;77423;53.554;9.916;2024-03-22T09:34:36;100926.63;;;14.48;69.49
86680;BME280;77423;53.554;9.916;2024-03-22T09:37:01;100919.75;;;14.13;70.20
86680;BME280;77423;53.554;9.916;2024-03-22T09:39:27;100916.28;;;13.89;69.56
86680;BME280;77423;53.554;9.916;2024-03-22T09:41:53;100905.53;;;14.82;68.35
86680;BME280;77423;53.554;9.916;2024-03-22T09:44:23;100910.91;;;14.46;69.48
86680;BME280;77423;53.554;9.916;2024-03-22T09:46:50;100896.84;;;14.60;69.14
86680;BME280;77423;53.554;9.916;2024-03-22T09:49:16;100911.81;;;14.30;69.88
86680;BME280;77423;53.554;9.916;2024-03-22T09:51:42;100902.25;;;14.13;70.85
86680;BME280;77423;53.554;9.916;2024-03-22T09:54:11;100903.06;;;14.32;70.42
86680;BME280;77423;53.554;9.916;2024-03-22T09:56:39;100901.38;;;14.21;70.66
86680;BME280;77423;53.554;9.916;2024-03-22T09:59:05;100904.94;;;13.52;73.14
86680;BME280;77423;53.554;9.916;2024-03-22T10:01:31;100905.75;;;14.14;71.83
86680;BME280;77423;53.554;9.916;2024-03-22T10:03:57;100900.50;;;14.20;71.34
86680;BME280;77423;53.554;9.916;2024-03-22T10:06:22;100890.81;;;14.39;71.40
86680;BME280;77423;53.554;9.916;2024-03-22T10:08:47;100887.47;;;13.75;73.39
86680;BME280;77423;53.554;9.916;2024-03-22T10:11:13;100897.94;;;13.95;73.14
86680;BME280;77423;53.554;9.916;2024-03-22T10:13:38;100890.97;;;13.43;74.22
86680;BME280;77423;53.554;9.916;2024-03-22T10:16:04;100889.19;;;13.89;73.03
86680;BME280;77423;53.554;9.916;2024-03-22T10:18:32;100890.09;;;13.54;73.57
86680;BME280;77423;53.554;9.916;2024-03-22T10:21:02;100888.38;;;13.56;73.80
86680;BME280;77423;53.554;9.916;2024-03-22T10:23:29;100888.28;;;14.21;72.28
86680;BME280;77423;53.554;9.916;2024-03-22T10:25:59;100887.50;;;13.71;72.98
86680;BME280;77423;53.554;9.916;2024-03-22T10:28:25;100890.91;;;14.13;71.94
86680;BME280;77423;53.554;9.916;2024-03-22T10:30:51;100897.94;;;13.92;73.04
86680;BME280;77423;53.554;9.916;2024-03-22T10:33:20;100888.22;;;14.28;72.08
86680;BME280;77423;53.554;9.916;2024-03-22T10:35:51;100889.91;;;14.49;70.88
86680;BME280;77423;53.554;9.916;2024-03-22T10:38:18;100886.50;;;14.20;72.12
86680;BME280;77423;53.554;9.916;2024-03-22T10:40:44;100892.66;;;14.14;72.58
86680;BME280;77423;53.554;9.916;2024-03-22T10:43:12;100886.38;;;14.57;71.22
86680;BME280;77423;53.554;9.916;2024-03-22T10:45:38;100883.75;;;14.49;71.85
86680;BME280;77423;53.554;9.916;2024-03-22T10:48:09;100883.03;;;14.14;72.20
86680;BME280;77423;53.554;9.916;2024-03-22T10:50:34;100872.50;;;14.33;71.51
86680;BME280;77423;53.554;9.916;2024-03-22T10:53:04;100877.81;;;14.10;71.81
86680;BME280;77423;53.554;9.916;2024-03-22T10:55:38;100880.38;;;14.27;71.91
86680;BME280;77423;53.554;9.916;2024-03-22T10:58:04;100880.44;;;14.01;72.67
86680;BME280;77423;53.554;9.916;2024-03-22T11:00:34;100897.00;;;14.15;71.31
86680;BME280;77423;53.554;9.916;2024-03-22T11:03:02;100885.63;;;14.22;71.89
86680;BME280;77423;53.554;9.916;2024-03-22T11:05:27;100876.91;;;14.19;71.61
86680;BME280;77423;53.554;9.916;2024-03-22T11:08:03;100879.47;;;14.31;71.79
86680;BME280;77423;53.554;9.916;2024-03-22T11:10:30;100881.34;;;13.90;71.68
86680;BME280;77423;53.554;9.916;2024-03-22T11:13:07;100868.09;;;14.41;71.34
86680;BME280;77423;53.554;9.916;2024-03-22T11:15:34;100860.84;;;14.88;69.77
86680;BME280;77423;53.554;9.916;2024-03-22T11:18:00;100863.03;;;13.48;72.72
86680;BME280;77423;53.554;9.916;2024-03-22T11:20:26;100863.81;;;14.15;71.93
86680;BME280;77423;53.554;9.916;2024-03-22T11:22:52;100867.38;;;13.90;72.23
86680;BME280;77423;53.554;9.916;2024-03-22T11:25:18;100862.91;;;14.15;71.47
86680;BME280;77423;53.554;9.916;2024-03-22T11:27:45;100864.66;;;14.22;71.14
86680;BME280;77423;53.554;9.916;2024-03-22T11:30:10;100846.06;;;14.73;69.68
86680;BME280;77423;53.554;9.916;2024-03-22T11:32:35;100844.44;;;14.52;70.76
86680;BME280;77423;53.554;9.916;2024-03-22T11:35:09;100832.03;;;14.82;69.89
86680;BME280;77423;53.554;9.916;2024-03-22T11:37:35;100852.34;;;14.41;70.69
86680;BME280;77423;53.554;9.916;2024-03-22T11:40:00;100849.66;;;14.49;70.75
86680;BME280;77423;53.554;9.916;2024-03-22T11:42:29;100854.97;;;14.35;70.83
86680;BME280;77423;53.554;9.916;2024-03-22T11:44:55;100859.44;;;14.14;71.97
86680;BME280;77423;53.554;9.916;2024-03-22T11:47:20;100850.81;;;13.66;72.37
86680;BME280;77423;53.554;9.916;2024-03-22T11:49:45;100849.00;;;13.87;71.76
86680;BME280;77423;53.554;9.916;2024-03-22T11:52:11;100844.63;;;14.00;71.92
86680;BME280;77423;53.554;9.916;2024-03-22T11:54:36;100834.09;;;14.10;70.71
86680;BME280;77423;53.554;9.916;2024-03-22T11:57:02;100830.31;;;14.79;70.34
86680;BME280;77423;53.554;9.916;2024-03-22T11:59:29;100836.59;;;14.41;70.28
86680;BME280;77423;53.554;9.916;2024-03-22T12:01:54;100833.28;;;13.91;72.64
86680;BME280;77423;53.554;9.916;2024-03-22T12:04:20;100833.28;;;13.91;72.45
86680;BME280;77423;53.554;9.916;2024-03-22T12:06:46;100829.81;;;13.86;72.16
86680;BME280;77423;53.554;9.916;2024-03-22T12:09:11;100823.66;;;13.92;71.75
86680;BME280;77423;53.554;9.916;2024-03-22T12:11:40;100819.81;;;14.79;69.81
86680;BME280;77423;53.554;9.916;2024-03-22T12:14:06;100814.59;;;14.75;71.13
86680;BME280;77423;53.554;9.916;2024-03-22T12:16:31;100823.50;;;14.35;71.04
86680;BME280;77423;53.554;9.916;2024-03-22T12:18:57;100818.16;;;14.57;70.03
86680;BME280;77423;53.554;9.916;2024-03-22T12:21:22;100809.53;;;14.30;70.20
86680;BME280;77423;53.554;9.916;2024-03-22T12:23:47;100813.03;;;14.32;70.99
86680;BME280;77423;53.554;9.916;2024-03-22T12:26:13;100810.25;;;14.69;70.09
86680;BME280;77423;53.554;9.916;2024-03-22T12:28:38;100810.22;;;14.75;70.25
86680;BME280;77423;53.554;9.916;2024-03-22T12:31:04;100805.06;;;14.55;70.39
86680;BME280;77423;53.554;9.916;2024-03-22T12:33:30;100822.44;;;14.73;70.32
86680;BME280;77423;53.554;9.916;2024-03-22T12:35:55;100824.38;;;14.32;72.08
86680;BME280;77423;53.554;9.916;2024-03-22T12:38:20;100820.09;;;14.18;71.56
86680;BME280;77423;53.554;9.916;2024-03-22T12:40:46;100812.94;;;14.47;71.36
86680;BME280;77423;53.554;9.916;2024-03-22T12:43:11;100813.81;;;14.53;70.80